createdAt,value
2023-02-05T05:43:00.306Z,102485.41
2023-02-05T05:45:27.111Z,102491.53
2023-02-05T05:47:53.645Z,102493.34
2023-02-05T05:50:20.212Z,102488.28
2023-02-05T05:52:46.724Z,102471.38
2023-02-05T05:55:13.363Z,102463.16
2023-02-05T05:57:39.837Z,102468.25
2023-02-05T06:00:06.739Z,102469.69
2023-02-05T06:02:33.137Z,102473.00
2023-02-05T06:04:59.808Z,102468.09
2023-02-05T06:07:26.321Z,102451.06
2023-02-05T06:09:52.851Z,102456.00
2023-02-05T06:12:19.390Z,102448.88
2023-02-05T06:14:45.908Z,102448.59
2023-02-05T06:17:12.453Z,102450.03
2023-02-05T06:19:38.946Z,102439.19
2023-02-05T06:22:05.490Z,102428.56
2023-02-05T06:24:31.981Z,102427.34
2023-02-05T06:26:58.469Z,102418.41
2023-02-05T06:29:25.157Z,102421.75
2023-02-05T06:31:51.953Z,102426.94
2023-02-05T06:34:18.428Z,102421.41
2023-02-05T06:36:44.982Z,102426.31
2023-02-05T06:39:11.491Z,102437.06
2023-02-05T06:41:37.995Z,102429.94
2023-02-05T06:44:04.692Z,102418.34
2023-02-05T06:46:31.356Z,102418.34
2023-02-05T06:48:57.848Z,102421.72
2023-02-05T06:51:24.424Z,102418.06
2023-02-05T06:53:52.678Z,102419.75
2023-02-05T06:56:20.215Z,102410.00
2023-02-05T06:58:46.807Z,102418.81
2023-02-05T07:01:13.396Z,102416.88
2023-02-05T07:03:39.891Z,102419.41
2023-02-05T07:06:06.923Z,102407.66
2023-02-05T07:08:34.211Z,102400.53
2023-02-05T07:11:01.931Z,102404.75
2023-02-05T07:13:29.870Z,102399.16
2023-02-05T07:15:56.493Z,102404.47
2023-02-05T07:18:24.467Z,102397.91
2023-02-05T07:20:50.979Z,102414.59
2023-02-05T07:23:17.569Z,102416.03
2023-02-05T07:25:44.086Z,102426.41
2023-02-05T07:28:10.802Z,102417.31
2023-02-05T07:30:37.321Z,102427.69
2023-02-05T07:33:05.124Z,102427.31
2023-02-05T07:35:33.397Z,102435.28
2023-02-05T07:38:00.226Z,102432.63
2023-02-05T07:40:26.761Z,102425.38
2023-02-05T07:42:53.296Z,102416.31
2023-02-05T07:45:19.875Z,102409.16
2023-02-05T07:47:49.928Z,102412.53
2023-02-05T07:50:17.408Z,102404.56
2023-02-05T07:52:43.962Z,102408.88
2023-02-05T07:55:10.513Z,102418.41
2023-02-05T07:57:37.122Z,102410.44
2023-02-05T08:00:04.553Z,102402.47
2023-02-05T08:02:31.029Z,102390.13
2023-02-05T08:04:57.553Z,102390.03
2023-02-05T08:07:24.063Z,102389.16
2023-02-05T08:09:50.587Z,102391.00
2023-02-05T08:12:17.115Z,102391.81
2023-02-05T08:14:43.904Z,102392.41
2023-02-05T08:17:10.438Z,102398.41
2023-02-05T08:19:36.979Z,102405.63
2023-02-05T08:22:03.471Z,102397.78
2023-02-05T08:24:32.050Z,102403.63
2023-02-05T08:26:58.695Z,102394.19
2023-02-05T08:29:25.233Z,102401.50
2023-02-05T08:31:51.946Z,102390.31
2023-02-05T08:34:20.757Z,102397.59
2023-02-05T08:36:47.609Z,102386.31
2023-02-05T08:39:14.539Z,102396.09
2023-02-05T08:41:41.776Z,102392.00
2023-02-05T08:44:08.332Z,102388.72
2023-02-05T08:46:48.854Z,102388.50
2023-02-05T08:49:17.268Z,102392.81
2023-02-05T08:51:43.889Z,102393.78
2023-02-05T08:54:13.432Z,102398.09
2023-02-05T08:56:40.573Z,102386.81
2023-02-05T08:59:08.387Z,102395.22
2023-02-05T09:01:41.065Z,102392.91
2023-02-05T09:04:08.914Z,102392.34
2023-02-05T09:06:35.518Z,102389.72
2023-02-05T09:09:02.065Z,102389.69
2023-02-05T09:11:30.577Z,102381.19
2023-02-05T09:13:58.219Z,102378.22
2023-02-05T09:16:25.663Z,102380.59
2023-02-05T09:18:56.038Z,102382.63
2023-02-05T09:21:23.758Z,102378.97
2023-02-05T09:23:51.828Z,102378.53
2023-02-05T09:26:19.376Z,102376.53
2023-02-05T09:28:46.091Z,102379.91
2023-02-05T09:31:13.843Z,102382.47
2023-02-05T09:33:40.487Z,102383.78
2023-02-05T09:36:09.685Z,102386.91
2023-02-05T09:38:36.781Z,102380.19
2023-02-05T09:41:10.560Z,102370.63
2023-02-05T09:43:43.360Z,102375.75
2023-02-05T09:46:40.270Z,102386.78
2023-02-05T09:49:35.080Z,102391.50
2023-02-05T09:52:11.968Z,102387.78
2023-02-05T09:54:44.010Z,102380.72
2023-02-05T09:57:17.932Z,102387.22
2023-02-05T09:59:46.736Z,102398.81
2023-02-05T10:02:28.396Z,102403.63
2023-02-05T10:04:55.252Z,102409.09
2023-02-05T10:07:38.206Z,102408.69
2023-02-05T10:10:22.572Z,102406.31
2023-02-05T10:13:00.488Z,102402.41
2023-02-05T10:15:52.105Z,102396.50
2023-02-05T10:18:37.647Z,102399.38
2023-02-05T10:21:16.278Z,102398.31
2023-02-05T10:23:45.909Z,102388.09
2023-02-05T10:26:14.573Z,102379.97
2023-02-05T10:29:22.608Z,102384.44
2023-02-05T10:32:06.830Z,102378.88
2023-02-05T10:35:06.227Z,102373.13
2023-02-05T10:37:32.682Z,102374.84
2023-02-05T10:39:59.805Z,102374.59
2023-02-05T10:42:36.321Z,102383.56
2023-02-05T10:45:27.302Z,102381.72
2023-02-05T10:48:15.349Z,102384.28
2023-02-05T10:50:47.612Z,102386.66
2023-02-05T10:53:19.025Z,102389.78
2023-02-05T10:55:45.581Z,102390.88
2023-02-05T10:58:28.601Z,102393.69
2023-02-05T11:00:55.388Z,102398.72
2023-02-05T11:03:22.373Z,102399.16
2023-02-05T11:05:49.521Z,102403.22
2023-02-05T11:08:36.898Z,102396.50
2023-02-05T11:11:05.279Z,102392.28
2023-02-05T11:13:32.854Z,102393.41
2023-02-05T11:16:09.756Z,102393.09
2023-02-05T11:18:40.648Z,102395.78
2023-02-05T11:21:09.898Z,102393.97
2023-02-05T11:23:41.569Z,102407.84
2023-02-05T11:26:21.279Z,102401.53
2023-02-05T11:28:48.212Z,102405.06
2023-02-05T11:31:33.868Z,102399.88
2023-02-05T11:34:15.720Z,102402.09
2023-02-05T11:37:17.166Z,102402.25
2023-02-05T11:39:45.796Z,102396.06
2023-02-05T11:42:25.378Z,102395.63
2023-02-05T11:44:57.996Z,102407.16
2023-02-05T11:47:31.432Z,102410.81
2023-02-05T11:49:59.386Z,102409.41
2023-02-05T11:52:33.093Z,102415.31
2023-02-05T11:54:59.735Z,102412.22
2023-02-05T11:57:39.155Z,102432.72
2023-02-05T12:00:08.694Z,102432.13
2023-02-05T12:02:37.281Z,102427.94
2023-02-05T12:05:17.525Z,102434.81
2023-02-05T12:08:05.953Z,102442.81
2023-02-05T12:10:45.869Z,102443.09
2023-02-05T12:13:45.676Z,102447.31
2023-02-05T12:16:28.756Z,102450.38
2023-02-05T12:19:17.431Z,102448.44
2023-02-05T12:21:51.563Z,102451.22
2023-02-05T12:24:37.026Z,102452.47
2023-02-05T12:27:41.999Z,102452.63
2023-02-05T12:30:46.226Z,102466.81
2023-02-05T12:33:28.684Z,102468.75
2023-02-05T12:36:13.739Z,102465.38
2023-02-05T12:39:04.577Z,102465.81
2023-02-05T12:41:42.850Z,102460.47
2023-02-05T12:44:22.719Z,102461.00
2023-02-05T12:46:51.926Z,102455.69
2023-02-05T12:49:18.473Z,102463.66
2023-02-05T12:51:52.494Z,102451.63
2023-02-05T12:54:32.809Z,102452.63
2023-02-05T12:57:06.887Z,102446.56
2023-02-05T12:59:47.905Z,102437.19
2023-02-05T13:02:24.393Z,102442.78
2023-02-05T13:05:21.976Z,102444.63
2023-02-05T13:08:01.908Z,102442.22
2023-02-05T13:10:38.052Z,102451.22
2023-02-05T13:13:09.862Z,102429.19
2023-02-05T13:15:44.859Z,102425.28
2023-02-05T13:18:22.340Z,102417.94
2023-02-05T13:21:18.083Z,102408.69
2023-02-05T13:24:05.107Z,102408.69
2023-02-05T13:27:02.882Z,102402.38
2023-02-05T13:29:33.334Z,102402.94
2023-02-05T13:32:15.205Z,102406.84
2023-02-05T13:34:43.401Z,102415.03
2023-02-05T13:37:13.063Z,102437.75
2023-02-05T13:39:58.653Z,102432.94
2023-02-05T13:42:56.514Z,102440.09
2023-02-05T13:45:59.759Z,102442.16
2023-02-05T13:48:52.570Z,102462.97
2023-02-05T13:51:45.404Z,102468.84
2023-02-05T13:54:44.100Z,102462.78
2023-02-05T13:57:36.487Z,102454.63
2023-02-05T14:00:05.508Z,102452.53
2023-02-05T14:02:39.433Z,102456.03
2023-02-05T14:05:06.673Z,102463.63
2023-02-05T14:07:51.460Z,102457.41
2023-02-05T14:10:28.740Z,102466.41
2023-02-05T14:13:24.784Z,102462.31
2023-02-05T14:15:57.486Z,102464.72
2023-02-05T14:18:45.089Z,102467.19
2023-02-05T14:21:29.988Z,102476.63
2023-02-05T14:24:03.745Z,102480.84
2023-02-05T14:26:45.618Z,102480.84
2023-02-05T14:29:43.259Z,102476.06
2023-02-05T14:32:29.981Z,102481.13
2023-02-05T14:35:38.748Z,102486.19
2023-02-05T14:38:33.024Z,102497.69
2023-02-05T14:41:12.920Z,102502.50
2023-02-05T14:43:41.051Z,102498.31
2023-02-05T14:46:20.633Z,102502.63
2023-02-05T14:48:48.660Z,102502.22
2023-02-05T14:51:26.181Z,102511.16
2023-02-05T14:54:17.082Z,102520.44
2023-02-05T14:56:48.554Z,102521.31
2023-02-05T14:59:43.770Z,102521.13
2023-02-05T15:02:48.130Z,102522.81
2023-02-05T15:05:20.630Z,102535.91
2023-02-05T15:07:49.613Z,102547.75
2023-02-05T15:10:22.704Z,102550.81
2023-02-05T15:13:02.132Z,102551.50
2023-02-05T15:15:37.525Z,102552.38
2023-02-05T15:18:14.352Z,102550.13
2023-02-05T15:20:47.171Z,102535.78
2023-02-05T15:23:20.283Z,102539.84
2023-02-05T15:26:09.093Z,102540.09
2023-02-05T15:29:03.927Z,102548.97
2023-02-05T15:31:48.347Z,102562.19
2023-02-05T15:34:20.936Z,102563.47
2023-02-05T15:36:54.185Z,102570.22
2023-02-05T15:39:43.948Z,102590.19
2023-02-05T15:42:16.895Z,102595.44
2023-02-05T15:44:43.375Z,102594.88
2023-02-05T15:47:19.470Z,102600.63
2023-02-05T15:49:49.258Z,102602.88
2023-02-05T15:52:20.776Z,102603.03
2023-02-05T15:54:47.599Z,102598.97
2023-02-05T15:57:22.217Z,102597.47
2023-02-05T15:59:49.214Z,102603.31
2023-02-05T16:02:20.471Z,102595.59
2023-02-05T16:04:57.654Z,102602.63
2023-02-05T16:07:37.108Z,102612.75
2023-02-05T16:10:17.371Z,102607.09
2023-02-05T16:13:04.076Z,102607.09
2023-02-05T16:15:41.657Z,102608.53
2023-02-05T16:18:18.469Z,102611.34
2023-02-05T16:20:50.569Z,102610.78
2023-02-05T16:23:24.551Z,102617.00
2023-02-05T16:25:57.514Z,102629.88
2023-02-05T16:28:56.621Z,102629.06
2023-02-05T16:31:25.420Z,102637.19
2023-02-05T16:33:58.035Z,102648.03
2023-02-05T16:36:29.571Z,102647.34
2023-02-05T16:38:59.105Z,102645.91
2023-02-05T16:41:31.859Z,102649.59
2023-02-05T16:44:03.855Z,102641.72
2023-02-05T16:46:31.721Z,102651.84
2023-02-05T16:49:22.459Z,102650.72
2023-02-05T16:51:48.985Z,102647.63
2023-02-05T16:54:18.295Z,102652.97
2023-02-05T16:56:54.465Z,102661.94
2023-02-05T16:59:28.788Z,102672.34
2023-02-05T17:01:56.115Z,102677.41
2023-02-05T17:04:35.470Z,102689.22
2023-02-05T17:07:04.448Z,102701.56
2023-02-05T17:09:39.262Z,102695.97
2023-02-05T17:12:45.221Z,102702.44
2023-02-05T17:15:32.044Z,102701.84
2023-02-05T17:18:20.215Z,102696.53
2023-02-05T17:20:46.782Z,102702.97
2023-02-05T17:23:15.092Z,102700.16
2023-02-05T17:25:51.239Z,102692.16
2023-02-05T17:28:21.054Z,102689.47
2023-02-05T17:30:49.228Z,102669.25
2023-02-05T17:33:19.747Z,102673.47
2023-02-05T17:35:48.815Z,102680.78
2023-02-05T17:38:16.422Z,102693.28
2023-02-05T17:40:44.168Z,102695.94
2023-02-05T17:43:10.795Z,102698.63
2023-02-05T17:45:39.794Z,102709.16
2023-02-05T17:48:07.829Z,102700.44
2023-02-05T17:50:36.075Z,102708.59
2023-02-05T17:53:03.625Z,102707.75
2023-02-05T17:55:30.391Z,102711.38
2023-02-05T17:57:57.033Z,102719.72
2023-02-05T18:00:26.979Z,102719.00
2023-02-05T18:02:53.762Z,102716.72
2023-02-05T18:05:20.495Z,102726.91
2023-02-05T18:07:58.180Z,102726.59
2023-02-05T18:10:28.158Z,102725.75
2023-02-05T18:12:56.196Z,102733.03
2023-02-05T18:15:23.500Z,102728.81
2023-02-05T18:17:50.362Z,102731.63
2023-02-05T18:20:20.871Z,102724.59
2023-02-05T18:22:48.130Z,102730.94
2023-02-05T18:25:15.079Z,102737.25
2023-02-05T18:27:41.737Z,102740.06
2023-02-05T18:30:08.977Z,102741.72
2023-02-05T18:32:35.512Z,102744.53
2023-02-05T18:35:02.049Z,102752.53
2023-02-05T18:37:28.614Z,102748.91
2023-02-05T18:39:55.175Z,102746.22
2023-02-05T18:42:23.182Z,102749.88
2023-02-05T18:44:49.722Z,102754.38
2023-02-05T18:47:16.228Z,102755.22
2023-02-05T18:49:42.746Z,102754.38
2023-02-05T18:52:10.320Z,102766.03
2023-02-05T18:54:36.864Z,102776.03
2023-02-05T18:57:03.617Z,102778.53
2023-02-05T19:04:34.028Z,102796.50
2023-02-05T19:07:00.676Z,102787.66
2023-02-05T19:09:28.146Z,102792.03
2023-02-05T19:11:55.963Z,102793.16
2023-02-05T19:14:24.454Z,102786.69
2023-02-05T19:16:51.276Z,102788.63
2023-02-05T19:19:20.055Z,102791.53
2023-02-05T19:21:48.811Z,102799.91
2023-02-05T19:24:17.358Z,102802.81
2023-02-05T19:26:44.248Z,102807.19
2023-02-05T19:29:15.327Z,102799.91
2023-02-05T19:31:42.205Z,102813.41
2023-02-05T19:34:08.824Z,102810.09
2023-02-05T19:36:35.510Z,102815.88
2023-02-05T19:39:04.341Z,102821.28
2023-02-05T19:41:32.603Z,102821.44
2023-02-05T19:44:03.056Z,102833.56
2023-02-05T19:46:32.783Z,102834.97
2023-02-05T19:49:02.125Z,102836.09
2023-02-05T19:51:28.932Z,102838.19
2023-02-05T19:53:58.777Z,102829.66
2023-02-05T19:56:26.505Z,102840.84
2023-02-05T19:58:55.190Z,102847.59
2023-02-05T20:01:27.805Z,102856.59
2023-02-05T20:03:56.910Z,102870.59
2023-02-05T20:06:25.460Z,102872.00
2023-02-05T20:08:52.129Z,102868.03
2023-02-05T20:11:19.447Z,102862.97
2023-02-05T20:13:46.810Z,102868.56
2023-02-05T20:16:21.998Z,102868.31
2023-02-05T20:18:54.260Z,102863.22
2023-02-05T20:21:21.629Z,102855.91
2023-02-05T20:23:49.313Z,102860.38
2023-02-05T20:26:19.036Z,102856.16
2023-02-05T20:29:06.637Z,102864.91
2023-02-05T20:31:33.482Z,102858.00
2023-02-05T20:34:18.749Z,102860.38
2023-02-05T20:36:47.114Z,102865.44
2023-02-05T20:39:13.980Z,102856.72
2023-02-05T20:41:40.846Z,102860.50
2023-02-05T20:44:07.377Z,102856.13
2023-02-05T20:46:33.988Z,102865.94
2023-02-05T20:49:00.707Z,102858.94
2023-02-05T20:51:27.600Z,102863.41
2023-02-05T20:53:57.678Z,102867.47
2023-02-05T20:56:25.905Z,102875.78
2023-02-05T20:58:52.936Z,102878.00
2023-02-05T21:01:22.210Z,102878.88
2023-02-05T21:03:51.221Z,102888.00
2023-02-05T21:06:19.548Z,102880.38
2023-02-05T21:08:48.197Z,102884.88
2023-02-05T21:11:16.245Z,102888.66
2023-02-05T21:13:44.884Z,102894.13
2023-02-05T21:16:13.213Z,102885.41
2023-02-05T21:18:40.421Z,102890.03
2023-02-05T21:21:13.124Z,102891.47
2023-02-05T21:23:40.329Z,102891.97
2023-02-05T21:26:08.249Z,102894.78
2023-02-05T21:28:34.802Z,102896.63
2023-02-05T21:31:06.221Z,102898.44
2023-02-05T21:33:33.192Z,102888.84
2023-02-05T21:36:08.536Z,102892.81
2023-02-05T21:38:36.946Z,102892.41
